sensor_id;sensor_type;location;lat;lon;timestamp;pressure;altitude;pressure_sealevel;temperature;humidity
27685;BME280;46113;50.130;8.526;2023-12-28T00:02:13;98939.59;;;-1.23;80.04
27685;BME280;46113;50.130;8.526;2023-12-28T00:04:40;98926.66;;;-1.26;80.26
27685;BME280;46113;50.130;8.526;2023-12-28T00:07:07;98936.31;;;-1.36;79.85
27685;BME280;46113;50.130;8.526;2023-12-28T00:09:34;98941.78;;;-1.57;79.93
27685;BME280;46113;50.130;8.526;2023-12-28T00:12:01;98953.69;;;-1.42;80.06
27685;BME280;46113;50.130;8.526;2023-12-28T00:14:27;98954.53;;;-1.39;80.48
27685;BME280;46113;50.130;8.526;2023-12-28T00:16:54;98958.88;;;-1.43;80.52
27685;BME280;46113;50.130;8.526;2023-12-28T00:19:21;98957.03;;;-1.33;80.99
27685;BME280;46113;50.130;8.526;2023-12-28T00:21:48;98958.75;;;-1.34;81.44
27685;BME280;46113;50.130;8.526;2023-12-28T00:24:16;98951.75;;;-1.27;80.64
27685;BME280;46113;50.130;8.526;2023-12-28T00:26:43;98955.28;;;-1.31;81.08
27685;BME280;46113;50.130;8.526;2023-12-28T00:29:11;98957.88;;;-1.31;80.73
27685;BME280;46113;50.130;8.526;2023-12-28T00:31:37;98950.19;;;-1.40;81.17
27685;BME280;46113;50.130;8.526;2023-12-28T00:34:04;98953.00;;;-1.56;81.19
27685;BME280;46113;50.130;8.526;2023-12-28T00:36:31;98951.16;;;-1.46;81.36
27685;BME280;46113;50.130;8.526;2023-12-28T00:38:58;98938.22;;;-1.49;81.13
27685;BME280;46113;50.130;8.526;2023-12-28T00:41:25;98939.91;;;-1.45;81.18
27685;BME280;46113;50.130;8.526;2023-12-28T00:43:52;98939.16;;;-1.55;81.83
27685;BME280;46113;50.130;8.526;2023-12-28T00:46:20;98934.72;;;-1.48;81.68
27685;BME280;46113;50.130;8.526;2023-12-28T00:48:47;98929.59;;;-1.51;81.45
27685;BME280;46113;50.130;8.526;2023-12-28T00:51:14;98937.28;;;-1.44;82.20
27685;BME280;46113;50.130;8.526;2023-12-28T00:53:41;98952.69;;;-1.31;82.25
27685;BME280;46113;50.130;8.526;2023-12-28T00:56:09;98956.84;;;-1.21;81.82
27685;BME280;46113;50.130;8.526;2023-12-28T00:58:41;98957.25;;;-1.49;81.90
27685;BME280;46113;50.130;8.526;2023-12-28T01:01:10;98963.16;;;-1.37;81.63
27685;BME280;46113;50.130;8.526;2023-12-28T01:03:39;98960.41;;;-1.25;81.24
27685;BME280;46113;50.130;8.526;2023-12-28T01:06:06;98955.16;;;-1.23;81.01
27685;BME280;46113;50.130;8.526;2023-12-28T01:08:33;98956.91;;;-1.24;81.54
27685;BME280;46113;50.130;8.526;2023-12-28T01:11:03;98949.16;;;-1.27;81.54
27685;BME280;46113;50.130;8.526;2023-12-28T01:13:30;98947.25;;;-1.14;81.60
27685;BME280;46113;50.130;8.526;2023-12-28T01:15:57;98950.81;;;-1.20;81.66
27685;BME280;46113;50.130;8.526;2023-12-28T01:18:25;98961.22;;;-1.21;81.37
27685;BME280;46113;50.130;8.526;2023-12-28T01:20:52;98966.44;;;-1.26;81.57
27685;BME280;46113;50.130;8.526;2023-12-28T01:23:19;98963.00;;;-1.25;81.72
27685;BME280;46113;50.130;8.526;2023-12-28T01:25:45;98963.63;;;-1.10;81.32
27685;BME280;46113;50.130;8.526;2023-12-28T01:28:12;98967.78;;;-0.98;80.56
27685;BME280;46113;50.130;8.526;2023-12-28T01:30:39;98958.84;;;-0.80;80.45
27685;BME280;46113;50.130;8.526;2023-12-28T01:33:06;98963.78;;;-0.65;80.50
27685;BME280;46113;50.130;8.526;2023-12-28T01:35:33;98964.66;;;-0.63;79.99
27685;BME280;46113;50.130;8.526;2023-12-28T01:38:00;98965.97;;;-0.38;79.45
27685;BME280;46113;50.130;8.526;2023-12-28T01:40:28;98965.06;;;-0.36;78.10
27685;BME280;46113;50.130;8.526;2023-12-28T01:42:55;98971.38;;;-0.02;77.89
27685;BME280;46113;50.130;8.526;2023-12-28T01:45:21;98985.59;;;0.26;77.73
27685;BME280;46113;50.130;8.526;2023-12-28T01:47:48;98980.78;;;0.50;71.24
27685;BME280;46113;50.130;8.526;2023-12-28T01:50:18;99005.94;;;0.93;70.94
27685;BME280;46113;50.130;8.526;2023-12-28T01:52:46;98998.78;;;1.03;71.30
27685;BME280;46113;50.130;8.526;2023-12-28T01:55:13;99002.19;;;1.05;71.09
27685;BME280;46113;50.130;8.526;2023-12-28T01:57:40;99006.47;;;1.09;72.02
27685;BME280;46113;50.130;8.526;2023-12-28T02:00:07;99009.09;;;1.08;72.00
27685;BME280;46113;50.130;8.526;2023-12-28T02:02:42;98994.28;;;1.12;73.62
27685;BME280;46113;50.130;8.526;2023-12-28T02:05:11;99001.00;;;1.20;71.88
27685;BME280;46113;50.130;8.526;2023-12-28T02:07:39;98992.84;;;1.34;73.14
27685;BME280;46113;50.130;8.526;2023-12-28T02:10:07;98993.38;;;1.49;73.22
27685;BME280;46113;50.130;8.526;2023-12-28T02:12:34;99004.16;;;1.70;70.55
27685;BME280;46113;50.130;8.526;2023-12-28T02:15:01;99013.63;;;1.74;71.70
27685;BME280;46113;50.130;8.526;2023-12-28T02:17:47;99004.72;;;1.83;72.14
27685;BME280;46113;50.130;8.526;2023-12-28T02:20:18;99007.81;;;1.97;70.19
27685;BME280;46113;50.130;8.526;2023-12-28T02:22:46;99020.66;;;2.05;69.47
27685;BME280;46113;50.130;8.526;2023-12-28T02:25:14;99017.22;;;2.05;69.23
27685;BME280;46113;50.130;8.526;2023-12-28T02:27:43;99014.19;;;2.20;68.51
27685;BME280;46113;50.130;8.526;2023-12-28T02:30:11;99015.69;;;2.61;64.39
27685;BME280;46113;50.130;8.526;2023-12-28T02:35:27;99002.75;;;2.86;63.18
27685;BME280;46113;50.130;8.526;2023-12-28T02:37:58;98993.41;;;3.07;63.22
27685;BME280;46113;50.130;8.526;2023-12-28T02:40:27;99008.19;;;3.35;61.39
27685;BME280;46113;50.130;8.526;2023-12-28T02:42:54;99014.63;;;3.54;59.67
27685;BME280;46113;50.130;8.526;2023-12-28T02:45:21;99027.06;;;3.74;59.96
27685;BME280;46113;50.130;8.526;2023-12-28T02:47:48;99034.41;;;3.90;58.60
27685;BME280;46113;50.130;8.526;2023-12-28T02:50:15;99022.56;;;4.05;58.15
27685;BME280;46113;50.130;8.526;2023-12-28T02:52:41;99029.00;;;4.20;58.66
27685;BME280;46113;50.130;8.526;2023-12-28T02:55:08;99026.50;;;4.17;58.87
27685;BME280;46113;50.130;8.526;2023-12-28T02:57:35;99019.28;;;4.23;58.23
27685;BME280;46113;50.130;8.526;2023-12-28T03:00:05;99020.94;;;4.26;60.04
27685;BME280;46113;50.130;8.526;2023-12-28T03:02:32;99015.47;;;4.32;60.43
27685;BME280;46113;50.130;8.526;2023-12-28T03:04:59;99019.69;;;4.36;61.28
27685;BME280;46113;50.130;8.526;2023-12-28T03:07:26;99016.75;;;4.46;60.65
27685;BME280;46113;50.130;8.526;2023-12-28T03:09:52;99022.53;;;4.30;59.55
27685;BME280;46113;50.130;8.526;2023-12-28T03:12:19;99023.47;;;4.53;59.77
27685;BME280;46113;50.130;8.526;2023-12-28T03:14:48;99019.50;;;4.43;60.80
27685;BME280;46113;50.130;8.526;2023-12-28T03:17:14;99021.16;;;4.45;59.60
27685;BME280;46113;50.130;8.526;2023-12-28T03:19:41;99015.63;;;4.53;60.07
27685;BME280;46113;50.130;8.526;2023-12-28T03:22:08;99021.75;;;4.52;60.44
27685;BME280;46113;50.130;8.526;2023-12-28T03:24:37;99026.25;;;4.48;60.27
27685;BME280;46113;50.130;8.526;2023-12-28T03:27:04;99022.03;;;4.44;61.74
27685;BME280;46113;50.130;8.526;2023-12-28T03:29:32;99022.91;;;4.45;62.87
27685;BME280;46113;50.130;8.526;2023-12-28T03:31:59;99024.28;;;4.30;63.29
27685;BME280;46113;50.130;8.526;2023-12-28T03:34:27;99026.72;;;4.10;65.74
27685;BME280;46113;50.130;8.526;2023-12-28T03:36:56;99043.69;;;3.98;66.99
27685;BME280;46113;50.130;8.526;2023-12-28T03:39:26;99039.41;;;3.96;67.44
27685;BME280;46113;50.130;8.526;2023-12-28T03:41:54;99043.50;;;3.78;69.48
27685;BME280;46113;50.130;8.526;2023-12-28T03:44:21;99038.13;;;3.55;71.64
27685;BME280;46113;50.130;8.526;2023-12-28T03:46:49;99030.03;;;3.63;72.35
27685;BME280;46113;50.130;8.526;2023-12-28T03:49:19;99044.06;;;3.60;73.04
27685;BME280;46113;50.130;8.526;2023-12-28T03:51:48;99049.41;;;3.57;73.75
27685;BME280;46113;50.130;8.526;2023-12-28T03:54:16;99040.94;;;3.47;74.55
27685;BME280;46113;50.130;8.526;2023-12-28T03:56:43;99038.81;;;3.32;75.83
27685;BME280;46113;50.130;8.526;2023-12-28T03:59:10;99046.72;;;3.30;76.63
27685;BME280;46113;50.130;8.526;2023-12-28T04:01:37;99057.25;;;3.29;77.91
27685;BME280;46113;50.130;8.526;2023-12-28T04:04:04;99063.22;;;3.32;77.88
27685;BME280;46113;50.130;8.526;2023-12-28T04:06:31;99070.25;;;3.30;78.48
27685;BME280;46113;50.130;8.526;2023-12-28T04:08:58;99076.94;;;3.11;80.01
27685;BME280;46113;50.130;8.526;2023-12-28T04:11:25;99075.91;;;3.16;80.76
27685;BME280;46113;50.130;8.526;2023-12-28T04:13:51;99079.50;;;3.12;81.86
27685;BME280;46113;50.130;8.526;2023-12-28T04:16:18;99073.19;;;2.91;83.34
27685;BME280;46113;50.130;8.526;2023-12-28T04:18:45;99078.25;;;2.95;84.05
27685;BME280;46113;50.130;8.526;2023-12-28T04:21:13;99085.16;;;2.98;84.44
27685;BME280;46113;50.130;8.526;2023-12-28T04:23:41;99082.38;;;3.03;84.24
27685;BME280;46113;50.130;8.526;2023-12-28T04:26:08;99065.16;;;2.97;85.28
27685;BME280;46113;50.130;8.526;2023-12-28T04:28:35;99063.34;;;2.99;85.18
27685;BME280;46113;50.130;8.526;2023-12-28T04:31:06;99067.59;;;3.02;84.90
27685;BME280;46113;50.130;8.526;2023-12-28T04:33:33;99069.44;;;3.00;85.73
27685;BME280;46113;50.130;8.526;2023-12-28T04:36:01;99064.44;;;2.92;86.07
27685;BME280;46113;50.130;8.526;2023-12-28T04:38:32;99044.53;;;2.86;87.07
27685;BME280;46113;50.130;8.526;2023-12-28T04:41:01;99053.03;;;2.94;86.80
27685;BME280;46113;50.130;8.526;2023-12-28T04:43:28;99045.31;;;2.90;86.73
27685;BME280;46113;50.130;8.526;2023-12-28T04:45:55;99046.22;;;2.89;87.33
27685;BME280;46113;50.130;8.526;2023-12-28T04:48:24;99061.44;;;3.04;86.66
27685;BME280;46113;50.130;8.526;2023-12-28T04:50:52;99054.41;;;3.06;86.57
27685;BME280;46113;50.130;8.526;2023-12-28T04:53:20;99040.00;;;2.93;87.41
27685;BME280;46113;50.130;8.526;2023-12-28T04:55:47;99067.84;;;2.94;87.50
27685;BME280;46113;50.130;8.526;2023-12-28T04:58:14;99061.63;;;2.98;87.25
27685;BME280;46113;50.130;8.526;2023-12-28T05:00:41;99039.97;;;2.94;87.53
27685;BME280;46113;50.130;8.526;2023-12-28T05:03:09;99056.09;;;3.09;87.18
27685;BME280;46113;50.130;8.526;2023-12-28T05:05:35;99047.38;;;3.08;87.11
27685;BME280;46113;50.130;8.526;2023-12-28T05:08:03;99052.56;;;3.10;86.84
27685;BME280;46113;50.130;8.526;2023-12-28T05:10:30;99054.34;;;3.08;87.09
27685;BME280;46113;50.130;8.526;2023-12-28T05:12:57;99076.38;;;3.01;87.30
27685;BME280;46113;50.130;8.526;2023-12-28T05:15:28;99092.72;;;3.07;87.46
27685;BME280;46113;50.130;8.526;2023-12-28T05:17:55;99080.69;;;3.02;87.28
27685;BME280;46113;50.130;8.526;2023-12-28T05:20:23;99086.44;;;3.13;86.78
27685;BME280;46113;50.130;8.526;2023-12-28T05:22:50;99087.97;;;3.20;86.30
27685;BME280;46113;50.130;8.526;2023-12-28T05:25:16;99091.03;;;3.06;87.30
27685;BME280;46113;50.130;8.526;2023-12-28T05:27:43;99086.28;;;3.19;86.38
27685;BME280;46113;50.130;8.526;2023-12-28T05:30:10;99082.06;;;3.14;86.97
27685;BME280;46113;50.130;8.526;2023-12-28T05:32:39;99100.97;;;3.24;86.57
27685;BME280;46113;50.130;8.526;2023-12-28T05:35:06;99097.47;;;3.25;86.34
27685;BME280;46113;50.130;8.526;2023-12-28T05:37:33;99093.88;;;3.27;85.83
27685;BME280;46113;50.130;8.526;2023-12-28T05:40:00;99096.31;;;3.33;85.60
27685;BME280;46113;50.130;8.526;2023-12-28T05:42:27;99095.69;;;3.25;85.76
27685;BME280;46113;50.130;8.526;2023-12-28T05:44:56;99093.22;;;3.49;85.30
27685;BME280;46113;50.130;8.526;2023-12-28T05:47:22;99084.81;;;3.39;85.02
27685;BME280;46113;50.130;8.526;2023-12-28T05:49:50;99085.47;;;3.46;84.40
27685;BME280;46113;50.130;8.526;2023-12-28T05:52:19;99090.28;;;3.62;84.59
27685;BME280;46113;50.130;8.526;2023-12-28T05:54:46;99094.44;;;3.67;83.98
27685;BME280;46113;50.130;8.526;2023-12-28T05:57:15;99095.34;;;3.66;84.23
27685;BME280;46113;50.130;8.526;2023-12-28T05:59:42;99090.19;;;3.63;84.41
27685;BME280;46113;50.130;8.526;2023-12-28T06:02:09;99081.38;;;3.66;83.98
27685;BME280;46113;50.130;8.526;2023-12-28T06:04:36;99079.81;;;3.62;84.41
27685;BME280;46113;50.130;8.526;2023-12-28T06:07:04;99088.66;;;3.57;85.29
27685;BME280;46113;50.130;8.526;2023-12-28T06:09:31;99078.78;;;3.66;84.53
27685;BME280;46113;50.130;8.526;2023-12-28T06:11:59;99084.22;;;3.59;84.71
27685;BME280;46113;50.130;8.526;2023-12-28T06:14:26;99071.34;;;3.52;84.94
27685;BME280;46113;50.130;8.526;2023-12-28T06:16:52;99074.38;;;3.68;84.84
27685;BME280;46113;50.130;8.526;2023-12-28T06:19:19;99077.22;;;3.87;83.85
27685;BME280;46113;50.130;8.526;2023-12-28T06:21:46;99072.28;;;3.78;84.07
27685;BME280;46113;50.130;8.526;2023-12-28T06:24:13;99069.00;;;3.71;83.83
27685;BME280;46113;50.130;8.526;2023-12-28T06:26:44;99071.34;;;3.80;83.42
27685;BME280;46113;50.130;8.526;2023-12-28T06:29:11;99065.59;;;3.96;83.11
27685;BME280;46113;50.130;8.526;2023-12-28T06:31:38;99068.06;;;4.00;82.86
27685;BME280;46113;50.130;8.526;2023-12-28T06:34:06;99068.03;;;4.02;82.79
27685;BME280;46113;50.130;8.526;2023-12-28T06:36:33;99068.50;;;3.86;83.28
27685;BME280;46113;50.130;8.526;2023-12-28T06:39:00;99069.28;;;3.90;83.56
27685;BME280;46113;50.130;8.526;2023-12-28T06:41:27;99072.94;;;3.84;83.46
27685;BME280;46113;50.130;8.526;2023-12-28T06:43:54;99062.41;;;3.87;83.60
27685;BME280;46113;50.130;8.526;2023-12-28T06:46:21;99070.53;;;4.05;82.90
27685;BME280;46113;50.130;8.526;2023-12-28T06:48:48;99078.38;;;4.05;82.85
27685;BME280;46113;50.130;8.526;2023-12-28T06:51:21;99073.56;;;3.93;83.09
27685;BME280;46113;50.130;8.526;2023-12-28T06:53:49;99070.72;;;3.99;82.75
27685;BME280;46113;50.130;8.526;2023-12-28T06:56:17;99070.81;;;3.96;82.19
27685;BME280;46113;50.130;8.526;2023-12-28T06:58:44;99068.94;;;3.99;82.29
27685;BME280;46113;50.130;8.526;2023-12-28T07:01:11;99065.53;;;3.97;82.88
27685;BME280;46113;50.130;8.526;2023-12-28T07:03:40;99069.34;;;3.89;82.46
27685;BME280;46113;50.130;8.526;2023-12-28T07:06:07;99071.78;;;3.93;82.46
27685;BME280;46113;50.130;8.526;2023-12-28T07:08:34;99075.75;;;4.05;82.23
27685;BME280;46113;50.130;8.526;2023-12-28T07:11:03;99080.91;;;4.08;81.26
27685;BME280;46113;50.130;8.526;2023-12-28T07:13:31;99075.63;;;4.10;80.67
27685;BME280;46113;50.130;8.526;2023-12-28T07:15:58;99076.09;;;4.21;80.62
27685;BME280;46113;50.130;8.526;2023-12-28T07:18:27;99082.88;;;4.02;81.18
27685;BME280;46113;50.130;8.526;2023-12-28T07:20:54;99077.94;;;3.92;81.19
27685;BME280;46113;50.130;8.526;2023-12-28T07:23:21;99092.22;;;4.09;81.07
27685;BME280;46113;50.130;8.526;2023-12-28T07:25:48;99086.66;;;3.93;81.27
27685;BME280;46113;50.130;8.526;2023-12-28T07:28:15;99102.16;;;3.99;80.93
27685;BME280;46113;50.130;8.526;2023-12-28T07:30:41;99109.03;;;4.02;80.91
27685;BME280;46113;50.130;8.526;2023-12-28T07:33:09;99121.19;;;4.04;80.63
27685;BME280;46113;50.130;8.526;2023-12-28T07:35:36;99122.88;;;4.05;80.25
27685;BME280;46113;50.130;8.526;2023-12-28T07:38:03;99127.97;;;4.10;79.76
27685;BME280;46113;50.130;8.526;2023-12-28T07:40:30;99123.44;;;4.15;79.30
27685;BME280;46113;50.130;8.526;2023-12-28T07:42:57;99129.44;;;4.19;79.30
27685;BME280;46113;50.130;8.526;2023-12-28T07:45:24;99123.53;;;4.12;79.37
27685;BME280;46113;50.130;8.526;2023-12-28T07:47:52;99132.53;;;4.30;78.82
27685;BME280;46113;50.130;8.526;2023-12-28T07:50:19;99133.41;;;4.31;79.27
27685;BME280;46113;50.130;8.526;2023-12-28T07:52:48;99149.22;;;4.27;79.18
27685;BME280;46113;50.130;8.526;2023-12-28T07:55:15;99164.19;;;4.24;78.98
27685;BME280;46113;50.130;8.526;2023-12-28T07:57:42;99170.88;;;4.33;78.34
27685;BME280;46113;50.130;8.526;2023-12-28T08:00:10;99169.00;;;4.36;78.71
27685;BME280;46113;50.130;8.526;2023-12-28T08:02:37;99171.16;;;4.50;77.32
27685;BME280;46113;50.130;8.526;2023-12-28T08:05:05;99175.59;;;4.48;77.46
27685;BME280;46113;50.130;8.526;2023-12-28T08:07:32;99180.22;;;4.40;77.89
27685;BME280;46113;50.130;8.526;2023-12-28T08:09:59;99178.19;;;4.48;77.31
27685;BME280;46113;50.130;8.526;2023-12-28T08:12:26;99174.88;;;4.43;77.46
27685;BME280;46113;50.130;8.526;2023-12-28T08:14:55;99179.34;;;4.66;77.11
27685;BME280;46113;50.130;8.526;2023-12-28T08:17:22;99177.84;;;4.59;76.79
27685;BME280;46113;50.130;8.526;2023-12-28T08:19:49;99178.53;;;4.64;76.84
27685;BME280;46113;50.130;8.526;2023-12-28T08:22:16;99176.44;;;4.74;77.07
27685;BME280;46113;50.130;8.526;2023-12-28T08:24:43;99160.63;;;4.77;76.76
27685;BME280;46113;50.130;8.526;2023-12-28T08:27:10;99149.00;;;4.85;76.65
27685;BME280;46113;50.130;8.526;2023-12-28T08:29:37;99152.31;;;4.90;76.27
27685;BME280;46113;50.130;8.526;2023-12-28T08:32:04;99145.03;;;4.73;76.26
27685;BME280;46113;50.130;8.526;2023-12-28T08:34:31;99159.34;;;4.64;75.92
27685;BME280;46113;50.130;8.526;2023-12-28T08:36:58;99153.69;;;4.76;75.52
27685;BME280;46113;50.130;8.526;2023-12-28T08:39:25;99148.00;;;4.63;76.34
27685;BME280;46113;50.130;8.526;2023-12-28T08:41:52;99143.47;;;4.92;75.08
27685;BME280;46113;50.130;8.526;2023-12-28T08:44:19;99135.97;;;4.83;75.44
27685;BME280;46113;50.130;8.526;2023-12-28T08:46:46;99142.50;;;4.71;74.70
27685;BME280;46113;50.130;8.526;2023-12-28T08:49:13;99140.84;;;4.92;75.03
27685;BME280;46113;50.130;8.526;2023-12-28T08:51:42;99146.72;;;4.99;75.04
27685;BME280;46113;50.130;8.526;2023-12-28T08:54:10;99141.13;;;4.85;74.10
27685;BME280;46113;50.130;8.526;2023-12-28T08:56:37;99141.53;;;4.98;73.89
27685;BME280;46113;50.130;8.526;2023-12-28T08:59:04;99138.50;;;4.85;74.43
27685;BME280;46113;50.130;8.526;2023-12-28T09:01:30;99133.84;;;4.93;74.17
27685;BME280;46113;50.130;8.526;2023-12-28T09:03:58;99127.94;;;4.88;74.22
27685;BME280;46113;50.130;8.526;2023-12-28T09:06:25;99133.22;;;4.86;74.78
27685;BME280;46113;50.130;8.526;2023-12-28T09:08:52;99129.22;;;4.76;74.48
27685;BME280;46113;50.130;8.526;2023-12-28T09:11:20;99134.22;;;4.82;74.59
27685;BME280;46113;50.130;8.526;2023-12-28T09:13:48;99133.47;;;5.04;73.70
27685;BME280;46113;50.130;8.526;2023-12-28T09:16:15;99136.56;;;4.90;74.01
27685;BME280;46113;50.130;8.526;2023-12-28T09:18:42;99143.44;;;4.94;74.06
27685;BME280;46113;50.130;8.526;2023-12-28T09:21:09;99153.59;;;4.78;74.57
27685;BME280;46113;50.130;8.526;2023-12-28T09:23:37;99153.00;;;4.95;74.16
27685;BME280;46113;50.130;8.526;2023-12-28T09:26:05;99158.97;;;4.75;74.62
27685;BME280;46113;50.130;8.526;2023-12-28T09:28:33;99152.59;;;4.82;74.56
27685;BME280;46113;50.130;8.526;2023-12-28T09:31:01;99152.44;;;4.87;74.84
27685;BME280;46113;50.130;8.526;2023-12-28T09:33:28;99149.31;;;5.01;74.04
27685;BME280;46113;50.130;8.526;2023-12-28T09:35:55;99158.03;;;5.01;74.54
27685;BME280;46113;50.130;8.526;2023-12-28T09:38:22;99163.28;;;4.76;74.40
27685;BME280;46113;50.130;8.526;2023-12-28T09:40:53;99164.66;;;5.12;74.46
27685;BME280;46113;50.130;8.526;2023-12-28T09:43:25;99165.41;;;5.15;74.53
27685;BME280;46113;50.130;8.526;2023-12-28T09:45:53;99164.47;;;5.16;74.12
27685;BME280;46113;50.130;8.526;2023-12-28T09:48:21;99165.16;;;5.22;74.29
27685;BME280;46113;50.130;8.526;2023-12-28T09:53:17;99170.97;;;5.06;74.81
27685;BME280;46113;50.130;8.526;2023-12-28T09:55:45;99165.50;;;5.12;74.30
27685;BME280;46113;50.130;8.526;2023-12-28T09:58:15;99167.00;;;5.19;74.72
27685;BME280;46113;50.130;8.526;2023-12-28T10:00:50;99163.84;;;5.10;74.22
27685;BME280;46113;50.130;8.526;2023-12-28T10:03:17;99159.69;;;5.04;74.19
27685;BME280;46113;50.130;8.526;2023-12-28T10:05:45;99160.66;;;5.25;73.90
27685;BME280;46113;50.130;8.526;2023-12-28T10:08:13;99157.34;;;5.20;74.10
27685;BME280;46113;50.130;8.526;2023-12-28T10:10:41;99164.88;;;5.29;74.23
27685;BME280;46113;50.130;8.526;2023-12-28T10:13:08;99171.31;;;5.20;74.10
27685;BME280;46113;50.130;8.526;2023-12-28T10:15:36;99170.13;;;5.29;73.44
27685;BME280;46113;50.130;8.526;2023-12-28T10:18:04;99166.88;;;5.46;73.49
27685;BME280;46113;50.130;8.526;2023-12-28T10:20:32;99167.88;;;5.18;74.29
27685;BME280;46113;50.130;8.526;2023-12-28T10:23:00;99176.31;;;5.03;74.66
27685;BME280;46113;50.130;8.526;2023-12-28T10:25:28;99178.28;;;5.22;73.45
27685;BME280;46113;50.130;8.526;2023-12-28T10:27:55;99173.91;;;5.46;72.76
27685;BME280;46113;50.130;8.526;2023-12-28T10:30:22;99170.31;;;5.49;72.92
27685;BME280;46113;50.130;8.526;2023-12-28T10:32:50;99181.31;;;5.58;72.55
27685;BME280;46113;50.130;8.526;2023-12-28T10:35:17;99164.03;;;5.53;71.96
27685;BME280;46113;50.130;8.526;2023-12-28T10:37:44;99157.97;;;5.75;72.21
27685;BME280;46113;50.130;8.526;2023-12-28T10:40:14;99171.75;;;5.80;70.38
27685;BME280;46113;50.130;8.526;2023-12-28T10:42:50;99178.50;;;5.63;72.42
27685;BME280;46113;50.130;8.526;2023-12-28T10:45:19;99168.44;;;5.52;71.64
27685;BME280;46113;50.130;8.526;2023-12-28T10:50:30;99167.19;;;6.07;69.84
27685;BME280;46113;50.130;8.526;2023-12-28T10:58:58;99158.75;;;5.99;69.71
27685;BME280;46113;50.130;8.526;2023-12-28T11:01:32;99163.38;;;6.15;69.47
27685;BME280;46113;50.130;8.526;2023-12-28T11:06:49;99158.03;;;5.95;68.36
27685;BME280;46113;50.130;8.526;2023-12-28T11:09:16;99156.09;;;6.21;68.06
27685;BME280;46113;50.130;8.526;2023-12-28T11:11:43;99153.81;;;6.34;68.51
27685;BME280;46113;50.130;8.526;2023-12-28T11:14:11;99164.72;;;6.03;67.74
27685;BME280;46113;50.130;8.526;2023-12-28T11:16:40;99155.03;;;5.82;68.59
27685;BME280;46113;50.130;8.526;2023-12-28T11:19:08;99153.25;;;5.83;68.91
27685;BME280;46113;50.130;8.526;2023-12-28T11:21:36;99144.63;;;6.02;68.46
27685;BME280;46113;50.130;8.526;2023-12-28T11:24:05;99148.28;;;5.97;68.61
27685;BME280;46113;50.130;8.526;2023-12-28T11:26:33;99141.84;;;6.05;66.72
27685;BME280;46113;50.130;8.526;2023-12-28T11:29:03;99147.72;;;6.11;65.50
27685;BME280;46113;50.130;8.526;2023-12-28T11:31:34;99140.59;;;6.36;66.68
27685;BME280;46113;50.130;8.526;2023-12-28T11:34:04;99150.25;;;5.92;67.38
27685;BME280;46113;50.130;8.526;2023-12-28T11:36:36;99146.06;;;6.09;67.02
27685;BME280;46113;50.130;8.526;2023-12-28T11:39:06;99130.97;;;6.14;65.86
27685;BME280;46113;50.130;8.526;2023-12-28T11:41:35;99122.53;;;6.28;65.55
27685;BME280;46113;50.130;8.526;2023-12-28T11:44:03;99133.94;;;6.27;66.32
27685;BME280;46113;50.130;8.526;2023-12-28T11:46:32;99131.75;;;6.38;64.96
27685;BME280;46113;50.130;8.526;2023-12-28T11:49:06;99123.09;;;6.14;64.20
27685;BME280;46113;50.130;8.526;2023-12-28T11:51:37;99131.53;;;6.22;65.52
27685;BME280;46113;50.130;8.526;2023-12-28T11:54:04;99127.84;;;6.47;65.34
27685;BME280;46113;50.130;8.526;2023-12-28T11:56:31;99117.13;;;6.31;65.34
27685;BME280;46113;50.130;8.526;2023-12-28T11:59:00;99109.13;;;6.34;65.25
27685;BME280;46113;50.130;8.526;2023-12-28T12:01:26;99107.09;;;6.41;65.04
27685;BME280;46113;50.130;8.526;2023-12-28T12:03:53;99100.00;;;6.43;64.40
27685;BME280;46113;50.130;8.526;2023-12-28T12:06:20;99091.91;;;6.27;64.32
27685;BME280;46113;50.130;8.526;2023-12-28T12:08:47;99102.34;;;6.29;65.48
27685;BME280;46113;50.130;8.526;2023-12-28T12:11:14;99098.94;;;6.47;63.86
27685;BME280;46113;50.130;8.526;2023-12-28T12:13:41;99101.19;;;6.15;64.37
27685;BME280;46113;50.130;8.526;2023-12-28T12:16:08;99093.00;;;6.23;64.51
27685;BME280;46113;50.130;8.526;2023-12-28T12:18:35;99095.13;;;6.55;65.05
27685;BME280;46113;50.130;8.526;2023-12-28T12:21:03;99093.09;;;6.20;65.39
27685;BME280;46113;50.130;8.526;2023-12-28T12:23:30;99078.38;;;6.16;65.68
27685;BME280;46113;50.130;8.526;2023-12-28T12:25:57;99081.72;;;6.19;66.10
27685;BME280;46113;50.130;8.526;2023-12-28T12:28:24;99089.28;;;6.27;64.04
27685;BME280;46113;50.130;8.526;2023-12-28T12:30:53;99078.59;;;6.11;65.22
27685;BME280;46113;50.130;8.526;2023-12-28T12:33:21;99082.53;;;6.01;65.41
27685;BME280;46113;50.130;8.526;2023-12-28T12:35:51;99078.72;;;6.08;66.45
27685;BME280;46113;50.130;8.526;2023-12-28T12:38:18;99082.41;;;5.81;66.71
27685;BME280;46113;50.130;8.526;2023-12-28T12:40:45;99082.44;;;6.02;65.03
27685;BME280;46113;50.130;8.526;2023-12-28T12:43:12;99060.31;;;6.29;64.63
27685;BME280;46113;50.130;8.526;2023-12-28T12:45:39;99066.03;;;5.97;65.88
27685;BME280;46113;50.130;8.526;2023-12-28T12:48:06;99070.00;;;5.64;65.92
27685;BME280;46113;50.130;8.526;2023-12-28T12:50:33;99045.00;;;5.76;65.62
27685;BME280;46113;50.130;8.526;2023-12-28T12:53:00;99057.31;;;5.53;67.38
27685;BME280;46113;50.130;8.526;2023-12-28T12:55:27;99053.28;;;5.67;65.71
27685;BME280;46113;50.130;8.526;2023-12-28T12:57:54;99050.47;;;5.49;66.43
27685;BME280;46113;50.130;8.526;2023-12-28T13:00:25;99062.81;;;5.47;65.09
27685;BME280;46113;50.130;8.526;2023-12-28T13:02:52;99051.25;;;5.51;65.33
27685;BME280;46113;50.130;8.526;2023-12-28T13:05:23;99046.75;;;5.55;66.15
27685;BME280;46113;50.130;8.526;2023-12-28T13:07:51;99048.13;;;5.41;66.07
27685;BME280;46113;50.130;8.526;2023-12-28T13:10:18;99043.06;;;5.14;67.11
27685;BME280;46113;50.130;8.526;2023-12-28T13:12:45;99041.88;;;5.45;65.86
27685;BME280;46113;50.130;8.526;2023-12-28T13:15:12;99042.00;;;5.41;66.12
27685;BME280;46113;50.130;8.526;2023-12-28T13:17:38;99031.97;;;5.30;66.24
27685;BME280;46113;50.130;8.526;2023-12-28T13:20:06;99020.44;;;5.12;66.91
27685;BME280;46113;50.130;8.526;2023-12-28T13:22:33;99020.19;;;5.18;67.80
27685;BME280;46113;50.130;8.526;2023-12-28T13:25:00;99025.88;;;5.05;67.73
27685;BME280;46113;50.130;8.526;2023-12-28T13:27:28;99030.97;;;5.32;67.12
27685;BME280;46113;50.130;8.526;2023-12-28T13:29:55;99027.31;;;5.14;67.13